Sunday, November 19, 2017, 11:13 PM EST
Back to Local

KVAY, Mt Holly South Jersey Rgnl

Location: Medford, NJ, United States Lat: 39.933
Local Time: 11:13 PM EST ( 4:13 GMT) Lon: -74.833
Time Zone: US/Eastern Elev: 52 ft

Show me the last for .
Show Decoded

2017-11-19 22:54 METAR KVAY 200354Z AUTO 27012G21KT 10SM CLR 05/M04 A2986 RMK AO2 SLP110
                 T00501039 $ =
2017-11-19 21:54 METAR KVAY 200254Z AUTO 28009KT 10SM CLR 06/M03 A2984 RMK AO2 PK WND 30026/0234
                 SLP104 T00561033 53025 $ =
2017-11-19 20:54 METAR KVAY 200154Z AUTO 29011G19KT 10SM BKN080 07/M03 A2981 RMK AO2 SLP095
                 T00671033 $ =
2017-11-19 19:54 METAR KVAY 200054Z AUTO 26011G20KT 10SM BKN080 07/M03 A2979 RMK AO2 SLP085
                 T00721028 $ =
2017-11-19 18:54 METAR KVAY 192354Z AUTO 28009G21KT 10SM SCT075 08/M04 A2977 RMK AO2 SLP079
                 T00781044 10117 20078 51038 $ =
2017-11-19 17:54 METAR KVAY 192254Z AUTO 27010G19KT 10SM SCT065 08/M04 A2973 RMK AO2 SLP067
                 T00781039 $ =
2017-11-19 16:54 METAR KVAY 192154Z AUTO 27016G23KT 10SM OVC055 09/M03 A2969 RMK AO2 SLP054
                 T00891028 $ =
2017-11-19 15:54 METAR KVAY 192054Z AUTO 29014G24KT 10SM SCT055 09/M02 A2965 RMK AO2 PK WND
                 30027/2021 SLP041 T00941017 53026 $ =
2017-11-19 14:54 METAR KVAY 191954Z AUTO 30011G27KT 10SM FEW055 10/M01 A2961 RMK AO2 PK WND
                 27030/1934 SLP026 T01001011 $ =
2017-11-19 13:54 METAR KVAY 191854Z AUTO 30014G27KT 10SM SCT055 12/M01 A2959 RMK AO2 PK WND
                 26032/1811 SLP019 T01171006 $ =
2017-11-19 12:54 METAR KVAY 191754Z AUTO 29012G28KT 10SM SCT050 11/00 A2958 RMK AO2 PK WND
                 28033/1719 SLP015 T01110000 10139 20100 51020 $ =
2017-11-19 11:54 METAR KVAY 191654Z AUTO 29016G26KT 10SM SCT050 11/00 A2957 RMK AO2 PK WND
                 31031/1604 SLP012 T01110000 $ =
2017-11-19 10:54 METAR KVAY 191554Z AUTO 30016G32KT 270V350 10SM BKN045 11/00 A2955 RMK AO2 PK
                 WND 29032/1504 SLP007 T01060000 $ =
2017-11-19 09:54 METAR KVAY 191454Z AUTO 29015G34KT 10SM BKN045 11/01 A2952 RMK AO2 PK WND
                 29035/1423 SLP995 T01060011 51067 $ =
2017-11-19 08:54 METAR KVAY 191354Z AUTO 28018G28KT 10SM CLR 10/02 A2947 RMK AO2 PK WND
                 30028/1349 SLP977 T01000022 $ =
2017-11-19 07:54 METAR KVAY 191254Z AUTO 27018G32KT 10SM BKN038 11/04 A2941 RMK AO2 PK WND
                 26032/1246 PRESRR SLP958 T01060039 $ =
2017-11-19 07:09 METAR KVAY 191209Z AUTO 26020G30KT 10SM FEW025 BKN034 OVC090 13/08 A2935 RMK AO2
                 PK WND 26030/1209 PRESRR T01280078 $ =
2017-11-19 06:54 METAR KVAY 191154Z AUTO 28014G23KT 10SM BKN025 BKN037 OVC080 14/12 A2932 RMK AO2
                 PK WND 24035/1135 RAE45 PRESRR SLP928 P0008 60036 70041 T01390117 10161 20139
                 53012 $ =
2017-11-19 06:33 METAR KVAY 191133Z AUTO 24018G26KT 8SM -RA FEW016 BKN037 OVC070 14/13 A2929 RMK
                 AO2 PK WND 25026/1126 P0008 T01440128 $ =
2017-11-19 05:54 METAR KVAY 191054Z AUTO 23012G22KT 10SM -RA FEW012 BKN018 OVC034 15/14 A2927 RMK
                 AO2 SLP911 P0002 T01500139 $ =
2017-11-19 04:54 METAR KVAY 190954Z AUTO 20009G16KT 160V230 5SM RA BR BKN018 BKN029 OVC055 14/14
                 A2928 RMK AO2 SLP915 P0006 T01440139 $ =
2017-11-19 04:27 METAR KVAY 190927Z AUTO 22010G18KT 180V240 6SM RA BR BKN018 OVC085 14/14 A2930
                 RMK AO2 P0004 T01440139 $ =
2017-11-19 03:54 METAR KVAY 190854Z AUTO 20008G15KT 160V230 10SM -RA FEW016 SCT055 OVC090 14/14
                 A2928 RMK AO2 SLP915 P0013 60020 T01440139 58031 $ =
2017-11-19 02:54 METAR KVAY 190754Z AUTO VRB06KT 4SM RA BR SCT055 BKN070 OVC080 14/13 A2934 RMK
                 AO2 SLP936 P0007 T01390133 $ =
2017-11-19 01:54 METAR KVAY 190654Z AUTO 22008G18KT 10SM -RA SCT070 BKN090 OVC110 16/12 A2936 RMK
                 AO2 RAB0557 SLP942 P0000 T01560122 $ =
2017-11-19 00:54 METAR KVAY 190554Z AUTO 21009G19KT 10SM FEW060 FEW075 SCT110 16/11 A2938 RMK AO2
                 SLP947 60001 T01610111 10161 20089 56036 $ =
2017-11-18 23:54 METAR KVAY 190454Z AUTO 21008G19KT 180V250 10SM FEW055 16/11 A2941 RMK AO2 SLPNO
                 T01560106 $ =

Support USWX by starting your Amazon purchase here.